sensor_id;sensor_type;location;lat;lon;timestamp;pressure;altitude;pressure_sealevel;temperature;humidity
52249;BME280;38541;48.130;8.378;2022-10-15T00:00:06;92261.56;;;13.66;87.57
52249;BME280;38541;48.130;8.378;2022-10-15T00:02:33;92261.75;;;13.69;87.83
52249;BME280;38541;48.130;8.378;2022-10-15T00:05:00;92271.16;;;13.76;87.35
52249;BME280;38541;48.130;8.378;2022-10-15T00:07:27;92265.88;;;13.76;87.35
52249;BME280;38541;48.130;8.378;2022-10-15T00:09:54;92278.00;;;13.77;87.62
52249;BME280;38541;48.130;8.378;2022-10-15T00:12:20;92265.28;;;13.79;87.48
52249;BME280;38541;48.130;8.378;2022-10-15T00:14:47;92260.97;;;13.83;87.57
52249;BME280;38541;48.130;8.378;2022-10-15T00:17:13;92268.19;;;13.77;86.92
52249;BME280;38541;48.130;8.378;2022-10-15T00:19:40;92267.31;;;13.82;87.37
52249;BME280;38541;48.130;8.378;2022-10-15T00:22:06;92273.28;;;13.74;87.29
52249;BME280;38541;48.130;8.378;2022-10-15T00:24:32;92271.72;;;13.73;87.32
52249;BME280;38541;48.130;8.378;2022-10-15T00:26:59;92266.53;;;13.67;87.71
52249;BME280;38541;48.130;8.378;2022-10-15T00:29:25;92261.34;;;13.76;87.38
52249;BME280;38541;48.130;8.378;2022-10-15T00:31:53;92265.06;;;13.75;87.57
52249;BME280;38541;48.130;8.378;2022-10-15T00:34:20;92279.16;;;13.70;87.67
52249;BME280;38541;48.130;8.378;2022-10-15T00:36:49;92262.22;;;13.72;87.53
52249;BME280;38541;48.130;8.378;2022-10-15T00:39:15;92269.59;;;13.75;87.42
52249;BME280;38541;48.130;8.378;2022-10-15T00:41:43;92273.88;;;13.70;87.58
52249;BME280;38541;48.130;8.378;2022-10-15T00:46:55;92256.88;;;13.77;87.47
52249;BME280;38541;48.130;8.378;2022-10-15T00:49:34;92266.63;;;13.76;87.65
52249;BME280;38541;48.130;8.378;2022-10-15T00:52:08;92268.50;;;13.76;87.41
52249;BME280;38541;48.130;8.378;2022-10-15T00:54:46;92260.59;;;13.76;87.62
52249;BME280;38541;48.130;8.378;2022-10-15T00:57:14;92269.59;;;13.75;87.42
52249;BME280;38541;48.130;8.378;2022-10-15T00:59:44;92274.88;;;13.75;87.51
52249;BME280;38541;48.130;8.378;2022-10-15T01:02:14;92283.94;;;13.68;87.32
52249;BME280;38541;48.130;8.378;2022-10-15T01:04:41;92278.88;;;13.72;87.41
52249;BME280;38541;48.130;8.378;2022-10-15T01:07:08;92264.88;;;13.72;87.54
52249;BME280;38541;48.130;8.378;2022-10-15T01:09:37;92267.03;;;13.69;87.68
52249;BME280;38541;48.130;8.378;2022-10-15T01:12:08;92263.13;;;13.67;88.05
52249;BME280;38541;48.130;8.378;2022-10-15T01:14:47;92258.63;;;13.67;87.73
52249;BME280;38541;48.130;8.378;2022-10-15T01:17:28;92260.78;;;13.65;86.98
52249;BME280;38541;48.130;8.378;2022-10-15T01:20:23;92254.91;;;13.68;86.98
52249;BME280;38541;48.130;8.378;2022-10-15T01:23:30;92248.84;;;13.68;86.75
52249;BME280;38541;48.130;8.378;2022-10-15T01:26:19;92254.31;;;13.72;86.98
52249;BME280;38541;48.130;8.378;2022-10-15T01:31:43;92264.19;;;13.66;86.62
52249;BME280;38541;48.130;8.378;2022-10-15T01:34:21;92263.91;;;13.67;86.51
52249;BME280;38541;48.130;8.378;2022-10-15T01:36:57;92262.34;;;13.66;86.00
52249;BME280;38541;48.130;8.378;2022-10-15T01:39:40;92254.91;;;13.68;86.22
52249;BME280;38541;48.130;8.378;2022-10-15T01:42:18;92257.53;;;13.68;86.22
52249;BME280;38541;48.130;8.378;2022-10-15T01:44:53;92253.81;;;13.69;86.06
52249;BME280;38541;48.130;8.378;2022-10-15T01:47:47;92263.78;;;13.73;85.96
52249;BME280;38541;48.130;8.378;2022-10-15T01:50:18;92248.66;;;13.64;85.68
52249;BME280;38541;48.130;8.378;2022-10-15T01:52:48;92269.75;;;13.64;85.80
52249;BME280;38541;48.130;8.378;2022-10-15T01:55:17;92260.97;;;13.69;85.83
52249;BME280;38541;48.130;8.378;2022-10-15T01:57:45;92244.53;;;13.58;85.00
52249;BME280;38541;48.130;8.378;2022-10-15T02:00:13;92243.06;;;13.52;85.45
52249;BME280;38541;48.130;8.378;2022-10-15T02:02:40;92256.84;;;13.49;84.99
52249;BME280;38541;48.130;8.378;2022-10-15T02:05:15;92255.97;;;13.53;84.71
52249;BME280;38541;48.130;8.378;2022-10-15T02:10:44;92253.72;;;13.47;84.92
52249;BME280;38541;48.130;8.378;2022-10-15T02:19:16;92243.66;;;13.49;83.44
52249;BME280;38541;48.130;8.378;2022-10-15T02:21:46;92233.97;;;13.44;83.45
52249;BME280;38541;48.130;8.378;2022-10-15T02:24:19;92240.88;;;13.40;83.69
52249;BME280;38541;48.130;8.378;2022-10-15T02:26:48;92240.09;;;13.39;84.55
52249;BME280;38541;48.130;8.378;2022-10-15T02:29:20;92238.53;;;13.38;84.02
52249;BME280;38541;48.130;8.378;2022-10-15T02:31:49;92250.72;;;13.34;84.32
52249;BME280;38541;48.130;8.378;2022-10-15T02:34:20;92250.16;;;13.37;84.86
52249;BME280;38541;48.130;8.378;2022-10-15T02:36:48;92253.38;;;13.34;84.73
52249;BME280;38541;48.130;8.378;2022-10-15T02:39:19;92251.81;;;13.33;84.62
52249;BME280;38541;48.130;8.378;2022-10-15T02:41:47;92251.25;;;13.36;84.95
52249;BME280;38541;48.130;8.378;2022-10-15T02:44:14;92261.69;;;13.41;85.26
52249;BME280;38541;48.130;8.378;2022-10-15T02:46:41;92265.09;;;13.28;85.17
52249;BME280;38541;48.130;8.378;2022-10-15T02:49:09;92267.94;;;13.32;85.25
52249;BME280;38541;48.130;8.378;2022-10-15T02:51:36;92270.75;;;13.35;85.65
52249;BME280;38541;48.130;8.378;2022-10-15T02:54:04;92269.63;;;13.41;85.78
52249;BME280;38541;48.130;8.378;2022-10-15T02:56:32;92270.56;;;13.32;85.88
52249;BME280;38541;48.130;8.378;2022-10-15T02:58:59;92270.75;;;13.35;85.89
52249;BME280;38541;48.130;8.378;2022-10-15T03:01:25;92278.13;;;13.38;86.06
52249;BME280;38541;48.130;8.378;2022-10-15T03:03:52;92275.47;;;13.38;86.11
52249;BME280;38541;48.130;8.378;2022-10-15T03:06:19;92274.41;;;13.39;86.03
52249;BME280;38541;48.130;8.378;2022-10-15T03:08:46;92268.06;;;13.40;86.45
52249;BME280;38541;48.130;8.378;2022-10-15T03:11:13;92272.84;;;13.38;86.33
52249;BME280;38541;48.130;8.378;2022-10-15T03:13:40;92272.78;;;13.44;86.60
52249;BME280;38541;48.130;8.378;2022-10-15T03:16:08;92275.09;;;13.45;86.35
52249;BME280;38541;48.130;8.378;2022-10-15T03:18:37;92272.69;;;13.49;86.68
52249;BME280;38541;48.130;8.378;2022-10-15T03:21:08;92278.38;;;13.56;86.18
52249;BME280;38541;48.130;8.378;2022-10-15T03:23:34;92278.38;;;13.56;85.56
52249;BME280;38541;48.130;8.378;2022-10-15T03:26:07;92267.28;;;13.54;85.80
52249;BME280;38541;48.130;8.378;2022-10-15T03:28:34;92274.06;;;13.60;85.82
52249;BME280;38541;48.130;8.378;2022-10-15T03:31:00;92281.88;;;13.51;85.84
52249;BME280;38541;48.130;8.378;2022-10-15T03:33:28;92275.22;;;13.54;85.78
52249;BME280;38541;48.130;8.378;2022-10-15T03:35:56;92262.91;;;13.63;85.63
52249;BME280;38541;48.130;8.378;2022-10-15T03:38:23;92269.56;;;13.61;85.45
52249;BME280;38541;48.130;8.378;2022-10-15T03:40:51;92276.59;;;13.65;85.23
52249;BME280;38541;48.130;8.378;2022-10-15T03:43:29;92278.56;;;13.60;85.15
52249;BME280;38541;48.130;8.378;2022-10-15T03:46:03;92283.53;;;13.61;85.42
52249;BME280;38541;48.130;8.378;2022-10-15T03:48:33;92275.22;;;13.54;85.15
52249;BME280;38541;48.130;8.378;2022-10-15T03:51:00;92272.09;;;13.52;85.27
52249;BME280;38541;48.130;8.378;2022-10-15T03:53:26;92277.28;;;13.57;85.67
52249;BME280;38541;48.130;8.378;2022-10-15T03:55:53;92272.88;;;13.66;85.79
52249;BME280;38541;48.130;8.378;2022-10-15T03:58:19;92283.94;;;13.68;85.30
52249;BME280;38541;48.130;8.378;2022-10-15T04:00:52;92281.88;;;13.65;85.24
52249;BME280;38541;48.130;8.378;2022-10-15T04:03:19;92282.09;;;13.55;85.28
52249;BME280;38541;48.130;8.378;2022-10-15T04:05:50;92290.09;;;13.64;85.71
52249;BME280;38541;48.130;8.378;2022-10-15T04:08:22;92272.31;;;13.69;85.56
52249;BME280;38541;48.130;8.378;2022-10-15T04:10:50;92286.19;;;13.61;85.06
52249;BME280;38541;48.130;8.378;2022-10-15T04:13:16;92284.72;;;13.55;85.46
52249;BME280;38541;48.130;8.378;2022-10-15T04:15:43;92287.25;;;13.60;85.78
52249;BME280;38541;48.130;8.378;2022-10-15T04:18:11;92290.50;;;13.71;85.91
52249;BME280;38541;48.130;8.378;2022-10-15T04:20:39;92292.66;;;13.69;85.56
52249;BME280;38541;48.130;8.378;2022-10-15T04:23:14;92300.25;;;13.70;85.72
52249;BME280;38541;48.130;8.378;2022-10-15T04:25:58;92301.28;;;13.75;85.92
52249;BME280;38541;48.130;8.378;2022-10-15T04:28:27;92305.75;;;13.74;85.87
52249;BME280;38541;48.130;8.378;2022-10-15T04:30:58;92299.19;;;13.72;85.99
52249;BME280;38541;48.130;8.378;2022-10-15T04:33:25;92303.59;;;13.76;86.06
52249;BME280;38541;48.130;8.378;2022-10-15T04:36:06;92311.72;;;13.80;86.00
52249;BME280;38541;48.130;8.378;2022-10-15T04:38:53;92310.66;;;13.81;85.87
52249;BME280;38541;48.130;8.378;2022-10-15T04:41:38;92313.56;;;13.79;85.89
52249;BME280;38541;48.130;8.378;2022-10-15T04:44:16;92306.72;;;13.78;86.12
52249;BME280;38541;48.130;8.378;2022-10-15T04:46:48;92291.09;;;13.82;86.05
52249;BME280;38541;48.130;8.378;2022-10-15T04:49:29;92302.13;;;13.84;85.92
52249;BME280;38541;48.130;8.378;2022-10-15T04:51:55;92312.41;;;13.86;86.03
52249;BME280;38541;48.130;8.378;2022-10-15T04:54:52;92307.91;;;13.86;86.02
52249;BME280;38541;48.130;8.378;2022-10-15T04:57:18;92316.31;;;13.88;85.78
52249;BME280;38541;48.130;8.378;2022-10-15T04:59:45;92315.53;;;13.88;85.69
52249;BME280;38541;48.130;8.378;2022-10-15T05:02:30;92318.97;;;13.88;85.92
52249;BME280;38541;48.130;8.378;2022-10-15T05:05:16;92317.13;;;13.89;86.10
52249;BME280;38541;48.130;8.378;2022-10-15T05:08:00;92306.25;;;13.90;85.95
52249;BME280;38541;48.130;8.378;2022-10-15T05:10:29;92303.59;;;13.90;86.02
52249;BME280;38541;48.130;8.378;2022-10-15T05:12:56;92314.97;;;13.91;85.93
52249;BME280;38541;48.130;8.378;2022-10-15T05:15:29;92321.81;;;13.92;85.76
52249;BME280;38541;48.130;8.378;2022-10-15T05:17:56;92322.88;;;13.91;85.93
52249;BME280;38541;48.130;8.378;2022-10-15T05:20:29;92323.16;;;13.89;86.03
52249;BME280;38541;48.130;8.378;2022-10-15T05:22:56;92326.13;;;13.88;86.27
52249;BME280;38541;48.130;8.378;2022-10-15T05:25:28;92323.75;;;13.86;86.49
52249;BME280;38541;48.130;8.378;2022-10-15T05:27:55;92332.16;;;13.88;86.25
52249;BME280;38541;48.130;8.378;2022-10-15T05:30:22;92332.97;;;13.89;86.36
52249;BME280;38541;48.130;8.378;2022-10-15T05:32:51;92328.44;;;13.89;86.30
52249;BME280;38541;48.130;8.378;2022-10-15T05:35:19;92330.00;;;13.90;86.11
52249;BME280;38541;48.130;8.378;2022-10-15T05:38:12;92345.56;;;13.92;86.30
52249;BME280;38541;48.130;8.378;2022-10-15T05:40:39;92343.69;;;13.92;86.47
52249;BME280;38541;48.130;8.378;2022-10-15T05:43:12;92343.69;;;13.92;86.38
52249;BME280;38541;48.130;8.378;2022-10-15T05:45:39;92341.66;;;13.89;86.39
52249;BME280;38541;48.130;8.378;2022-10-15T05:48:06;92349.56;;;13.89;86.19
52249;BME280;38541;48.130;8.378;2022-10-15T05:50:33;92341.53;;;13.66;86.28
52249;BME280;38541;48.130;8.378;2022-10-15T05:53:02;92342.00;;;13.68;86.59
52249;BME280;38541;48.130;8.378;2022-10-15T05:55:36;92352.09;;;13.66;86.40
52249;BME280;38541;48.130;8.378;2022-10-15T05:58:03;92350.13;;;13.58;85.96
52249;BME280;38541;48.130;8.378;2022-10-15T06:00:30;92350.50;;;13.51;86.10
52249;BME280;38541;48.130;8.378;2022-10-15T06:02:57;92348.72;;;13.47;86.10
52249;BME280;38541;48.130;8.378;2022-10-15T06:05:24;92343.94;;;13.49;86.86
52249;BME280;38541;48.130;8.378;2022-10-15T06:07:51;92355.56;;;13.48;86.27
52249;BME280;38541;48.130;8.378;2022-10-15T06:10:18;92366.19;;;13.43;86.09
52249;BME280;38541;48.130;8.378;2022-10-15T06:12:48;92366.19;;;13.43;86.69
52249;BME280;38541;48.130;8.378;2022-10-15T06:15:17;92363.53;;;13.43;86.61
52249;BME280;38541;48.130;8.378;2022-10-15T06:17:44;92377.81;;;13.41;85.92
52249;BME280;38541;48.130;8.378;2022-10-15T06:20:11;92373.66;;;13.35;86.07
52249;BME280;38541;48.130;8.378;2022-10-15T06:22:38;92371.53;;;13.37;86.29
52249;BME280;38541;48.130;8.378;2022-10-15T06:25:05;92376.97;;;13.27;86.18
52249;BME280;38541;48.130;8.378;2022-10-15T06:27:32;92381.66;;;13.30;86.23
52249;BME280;38541;48.130;8.378;2022-10-15T06:29:58;92384.88;;;13.27;86.04
52249;BME280;38541;48.130;8.378;2022-10-15T06:32:25;92386.81;;;13.21;86.23
52249;BME280;38541;48.130;8.378;2022-10-15T06:34:51;92394.94;;;13.25;86.72
52249;BME280;38541;48.130;8.378;2022-10-15T06:37:18;92395.50;;;13.22;86.02
52249;BME280;38541;48.130;8.378;2022-10-15T06:39:44;92394.34;;;13.28;86.55
52249;BME280;38541;48.130;8.378;2022-10-15T06:42:12;92403.75;;;13.34;86.48
52249;BME280;38541;48.130;8.378;2022-10-15T06:44:39;92406.00;;;13.46;86.05
52249;BME280;38541;48.130;8.378;2022-10-15T06:47:06;92409.91;;;13.49;85.29
52249;BME280;38541;48.130;8.378;2022-10-15T06:49:32;92410.97;;;13.48;85.13
52249;BME280;38541;48.130;8.378;2022-10-15T06:51:59;92421.84;;;13.46;84.63
52249;BME280;38541;48.130;8.378;2022-10-15T06:54:29;92418.41;;;13.46;84.82
52249;BME280;38541;48.130;8.378;2022-10-15T06:56:56;92430.25;;;13.48;83.68
52249;BME280;38541;48.130;8.378;2022-10-15T06:59:22;92431.16;;;13.38;83.61
52249;BME280;38541;48.130;8.378;2022-10-15T07:01:49;92407.41;;;13.38;83.78
52249;BME280;38541;48.130;8.378;2022-10-15T07:04:15;92429.84;;;13.17;83.01
52249;BME280;38541;48.130;8.378;2022-10-15T07:06:42;92433.22;;;13.22;82.21
52249;BME280;38541;48.130;8.378;2022-10-15T07:09:09;92419.38;;;13.11;81.96
52249;BME280;38541;48.130;8.378;2022-10-15T07:11:35;92419.31;;;13.17;82.40
52249;BME280;38541;48.130;8.378;2022-10-15T07:14:02;92430.00;;;13.06;81.84
52249;BME280;38541;48.130;8.378;2022-10-15T07:16:28;92414.53;;;12.99;81.86
52249;BME280;38541;48.130;8.378;2022-10-15T07:18:54;92413.78;;;12.99;82.49
52249;BME280;38541;48.130;8.378;2022-10-15T07:21:21;92423.41;;;13.09;82.26
52249;BME280;38541;48.130;8.378;2022-10-15T07:23:48;92425.50;;;13.07;80.76
52249;BME280;38541;48.130;8.378;2022-10-15T07:26:15;92442.25;;;12.97;80.85
52249;BME280;38541;48.130;8.378;2022-10-15T07:28:41;92427.81;;;12.94;80.80
52249;BME280;38541;48.130;8.378;2022-10-15T07:31:08;92430.13;;;12.96;80.93
52249;BME280;38541;48.130;8.378;2022-10-15T07:33:34;92433.34;;;12.93;81.62
52249;BME280;38541;48.130;8.378;2022-10-15T07:36:06;92439.34;;;12.98;80.91
52249;BME280;38541;48.130;8.378;2022-10-15T07:38:34;92426.00;;;12.90;80.83
52249;BME280;38541;48.130;8.378;2022-10-15T07:41:02;92420.47;;;12.91;81.25
52249;BME280;38541;48.130;8.378;2022-10-15T07:43:30;92419.41;;;12.92;81.63
52249;BME280;38541;48.130;8.378;2022-10-15T07:45:57;92437.13;;;12.87;81.40
52249;BME280;38541;48.130;8.378;2022-10-15T07:48:23;92447.78;;;12.76;81.55
52249;BME280;38541;48.130;8.378;2022-10-15T07:50:57;92444.66;;;12.74;82.39
52249;BME280;38541;48.130;8.378;2022-10-15T07:53:24;92436.91;;;12.83;82.39
52249;BME280;38541;48.130;8.378;2022-10-15T07:56:01;92424.84;;;12.77;81.78
52249;BME280;38541;48.130;8.378;2022-10-15T07:58:32;92461.25;;;12.75;81.79
52249;BME280;38541;48.130;8.378;2022-10-15T08:01:04;92434.09;;;12.74;82.15
52249;BME280;38541;48.130;8.378;2022-10-15T08:03:32;92437.13;;;12.87;82.13
52249;BME280;38541;48.130;8.378;2022-10-15T08:06:00;92458.78;;;12.83;80.98
52249;BME280;38541;48.130;8.378;2022-10-15T08:08:27;92452.44;;;12.84;80.91
52249;BME280;38541;48.130;8.378;2022-10-15T08:10:53;92458.44;;;12.90;81.14
52249;BME280;38541;48.130;8.378;2022-10-15T08:13:20;92456.88;;;12.89;81.07
52249;BME280;38541;48.130;8.378;2022-10-15T08:15:49;92453.50;;;12.83;81.03
52249;BME280;38541;48.130;8.378;2022-10-15T08:18:15;92449.25;;;12.88;81.31
52249;BME280;38541;48.130;8.378;2022-10-15T08:20:42;92441.81;;;12.90;81.46
52249;BME280;38541;48.130;8.378;2022-10-15T08:23:15;92460.56;;;12.88;81.37
52249;BME280;38541;48.130;8.378;2022-10-15T08:25:42;92442.91;;;12.89;81.48
52249;BME280;38541;48.130;8.378;2022-10-15T08:28:11;92447.09;;;12.90;81.39
52249;BME280;38541;48.130;8.378;2022-10-15T08:30:37;92472.16;;;12.87;80.69
52249;BME280;38541;48.130;8.378;2022-10-15T08:33:10;92452.72;;;12.83;80.40
52249;BME280;38541;48.130;8.378;2022-10-15T08:35:41;92451.03;;;12.92;80.40
52249;BME280;38541;48.130;8.378;2022-10-15T08:38:12;92466.63;;;12.89;79.68
52249;BME280;38541;48.130;8.378;2022-10-15T08:40:52;92464.06;;;13.03;79.80
52249;BME280;38541;48.130;8.378;2022-10-15T08:43:29;92453.56;;;13.22;78.91
52249;BME280;38541;48.130;8.378;2022-10-15T08:46:00;92458.53;;;13.43;77.85
52249;BME280;38541;48.130;8.378;2022-10-15T08:48:33;92453.69;;;13.50;77.60
52249;BME280;38541;48.130;8.378;2022-10-15T08:51:07;92465.69;;;13.61;77.43
52249;BME280;38541;48.130;8.378;2022-10-15T08:53:42;92457.91;;;13.70;77.21
52249;BME280;38541;48.130;8.378;2022-10-15T09:04:36;92471.53;;;13.91;75.66
52249;BME280;38541;48.130;8.378;2022-10-15T09:07:33;92477.97;;;14.18;75.35
52249;BME280;38541;48.130;8.378;2022-10-15T09:10:26;92480.88;;;14.03;74.87
52249;BME280;38541;48.130;8.378;2022-10-15T09:13:09;92484.50;;;14.07;74.85
52249;BME280;38541;48.130;8.378;2022-10-15T09:15:55;92492.41;;;14.07;75.20
52249;BME280;38541;48.130;8.378;2022-10-15T09:18:26;92496.88;;;13.92;75.58
52249;BME280;38541;48.130;8.378;2022-10-15T09:20:55;92496.44;;;14.04;75.86
52249;BME280;38541;48.130;8.378;2022-10-15T09:23:25;92497.72;;;14.21;74.79
52249;BME280;38541;48.130;8.378;2022-10-15T09:31:23;92500.31;;;14.26;75.83
52249;BME280;38541;48.130;8.378;2022-10-15T09:33:58;92492.84;;;14.14;75.17
52249;BME280;38541;48.130;8.378;2022-10-15T09:36:35;92495.00;;;14.12;74.98
52249;BME280;38541;48.130;8.378;2022-10-15T09:44:42;92504.38;;;14.04;75.71
52249;BME280;38541;48.130;8.378;2022-10-15T09:47:28;92501.28;;;14.16;75.98
52249;BME280;38541;48.130;8.378;2022-10-15T09:49:58;92512.44;;;14.27;74.83
52249;BME280;38541;48.130;8.378;2022-10-15T09:58:03;92512.72;;;14.25;74.88
52249;BME280;38541;48.130;8.378;2022-10-15T10:03:16;92516.41;;;14.44;75.07
52249;BME280;38541;48.130;8.378;2022-10-15T10:05:43;92523.53;;;14.57;74.45
52249;BME280;38541;48.130;8.378;2022-10-15T10:08:20;92526.75;;;14.40;73.72
52249;BME280;38541;48.130;8.378;2022-10-15T10:11:00;92542.53;;;14.45;74.64
52249;BME280;38541;48.130;8.378;2022-10-15T10:13:51;92527.84;;;14.39;73.76
52249;BME280;38541;48.130;8.378;2022-10-15T10:16:19;92534.53;;;14.64;73.32
52249;BME280;38541;48.130;8.378;2022-10-15T10:21:33;92543.44;;;14.68;72.66
52249;BME280;38541;48.130;8.378;2022-10-15T10:24:36;92540.56;;;14.37;74.29
52249;BME280;38541;48.130;8.378;2022-10-15T10:27:21;92543.53;;;14.16;74.75
52249;BME280;38541;48.130;8.378;2022-10-15T10:30:07;92539.94;;;14.26;74.70
52249;BME280;38541;48.130;8.378;2022-10-15T10:32:34;92531.13;;;14.31;74.04
52249;BME280;38541;48.130;8.378;2022-10-15T10:35:02;92537.66;;;14.52;73.53
52249;BME280;38541;48.130;8.378;2022-10-15T10:37:40;92536.50;;;14.59;72.46
52249;BME280;38541;48.130;8.378;2022-10-15T10:40:26;92536.63;;;14.95;71.80
52249;BME280;38541;48.130;8.378;2022-10-15T10:43:14;92549.75;;;14.87;71.57
52249;BME280;38541;48.130;8.378;2022-10-15T10:46:24;92549.53;;;14.69;71.71
52249;BME280;38541;48.130;8.378;2022-10-15T10:48:51;92566.69;;;14.72;71.12
52249;BME280;38541;48.130;8.378;2022-10-15T10:51:21;92535.66;;;14.77;71.67
52249;BME280;38541;48.130;8.378;2022-10-15T10:56:41;92540.44;;;15.31;70.76
52249;BME280;38541;48.130;8.378;2022-10-15T10:59:18;92530.47;;;15.65;69.68
52249;BME280;38541;48.130;8.378;2022-10-15T11:01:48;92534.16;;;15.78;68.47
52249;BME280;38541;48.130;8.378;2022-10-15T11:04:29;92534.41;;;15.53;68.49
52249;BME280;38541;48.130;8.378;2022-10-15T11:09:56;92511.94;;;15.28;69.57
52249;BME280;38541;48.130;8.378;2022-10-15T11:12:37;92504.06;;;15.23;69.75
52249;BME280;38541;48.130;8.378;2022-10-15T11:15:31;92523.25;;;15.43;69.03
52249;BME280;38541;48.130;8.378;2022-10-15T11:26:27;92505.25;;;15.31;69.52
52249;BME280;38541;48.130;8.378;2022-10-15T11:40:43;92501.38;;;15.00;70.49
52249;BME280;38541;48.130;8.378;2022-10-15T11:54:59;92507.28;;;15.34;68.88
52249;BME280;38541;48.130;8.378;2022-10-15T11:57:28;92492.22;;;15.34;68.69
52249;BME280;38541;48.130;8.378;2022-10-15T12:00:05;92502.59;;;15.31;68.68
52249;BME280;38541;48.130;8.378;2022-10-15T12:02:38;92514.75;;;15.32;68.36
52249;BME280;38541;48.130;8.378;2022-10-15T12:05:05;92494.88;;;15.06;69.30
52249;BME280;38541;48.130;8.378;2022-10-15T12:07:50;92493.72;;;15.12;70.33
52249;BME280;38541;48.130;8.378;2022-10-15T12:13:23;92478.59;;;15.27;69.69
52249;BME280;38541;48.130;8.378;2022-10-15T12:16:09;92488.91;;;15.51;69.17
52249;BME280;38541;48.130;8.378;2022-10-15T12:23:53;92501.28;;;15.56;68.97
52249;BME280;38541;48.130;8.378;2022-10-15T12:28:51;92508.09;;;15.34;69.00
52249;BME280;38541;48.130;8.378;2022-10-15T12:31:19;92489.16;;;15.41;69.54
52249;BME280;38541;48.130;8.378;2022-10-15T12:33:49;92480.69;;;15.53;68.82
52249;BME280;38541;48.130;8.378;2022-10-15T12:36:28;92493.84;;;15.44;68.25
52249;BME280;38541;48.130;8.378;2022-10-15T12:38:57;92516.22;;;15.38;69.16
52249;BME280;38541;48.130;8.378;2022-10-15T12:41:44;92495.63;;;15.35;70.23
52249;BME280;38541;48.130;8.378;2022-10-15T12:44:38;92487.28;;;15.41;71.09
52249;BME280;38541;48.130;8.378;2022-10-15T12:47:09;92482.50;;;15.30;71.09
52249;BME280;38541;48.130;8.378;2022-10-15T12:58:01;92470.56;;;15.32;70.26
52249;BME280;38541;48.130;8.378;2022-10-15T13:00:37;92469.19;;;15.21;71.32
52249;BME280;38541;48.130;8.378;2022-10-15T13:05:36;92474.72;;;15.10;71.18
52249;BME280;38541;48.130;8.378;2022-10-15T13:08:05;92474.41;;;15.12;71.67
52249;BME280;38541;48.130;8.378;2022-10-15T13:10:40;92478.19;;;15.34;70.91
52249;BME280;38541;48.130;8.378;2022-10-15T13:13:14;92474.16;;;15.36;70.61
52249;BME280;38541;48.130;8.378;2022-10-15T13:15:49;92486.22;;;15.29;70.82
52249;BME280;38541;48.130;8.378;2022-10-15T13:18:23;92488.75;;;15.34;70.66
52249;BME280;38541;48.130;8.378;2022-10-15T13:20:51;92512.47;;;15.53;70.44
52249;BME280;38541;48.130;8.378;2022-10-15T13:23:31;92479.69;;;15.63;70.78
52249;BME280;38541;48.130;8.378;2022-10-15T13:28:42;92482.56;;;15.89;69.65
52249;BME280;38541;48.130;8.378;2022-10-15T13:31:20;92478.28;;;16.02;69.51
52249;BME280;38541;48.130;8.378;2022-10-15T13:33:56;92486.31;;;16.20;68.69
52249;BME280;38541;48.130;8.378;2022-10-15T13:36:25;92485.38;;;16.16;68.57
52249;BME280;38541;48.130;8.378;2022-10-15T13:38:56;92480.41;;;16.54;67.83
52249;BME280;38541;48.130;8.378;2022-10-15T13:41:30;92480.19;;;16.74;65.94
52249;BME280;38541;48.130;8.378;2022-10-15T13:43:58;92474.69;;;16.70;66.41
52249;BME280;38541;48.130;8.378;2022-10-15T13:46:28;92485.94;;;16.67;66.35
52249;BME280;38541;48.130;8.378;2022-10-15T13:49:16;92484.25;;;16.39;66.70
52249;BME280;38541;48.130;8.378;2022-10-15T13:51:48;92493.75;;;16.40;67.11
52249;BME280;38541;48.130;8.378;2022-10-15T13:54:24;92481.88;;;16.38;67.99
52249;BME280;38541;48.130;8.378;2022-10-15T13:57:01;92482.78;;;16.24;68.98
52249;BME280;38541;48.130;8.378;2022-10-15T13:59:29;92478.09;;;16.21;68.18
52249;BME280;38541;48.130;8.378;2022-10-15T14:01:59;92475.28;;;16.26;68.44
52249;BME280;38541;48.130;8.378;2022-10-15T14:04:28;92482.16;;;16.59;68.16
52249;BME280;38541;48.130;8.378;2022-10-15T14:07:04;92473.00;;;16.74;67.25
52249;BME280;38541;48.130;8.378;2022-10-15T14:09:45;92474.44;;;18.74;62.71
52249;BME280;38541;48.130;8.378;2022-10-15T14:12:12;92468.97;;;19.09;59.64
52249;BME280;38541;48.130;8.378;2022-10-15T14:14:44;92476.38;;;18.95;59.88
52249;BME280;38541;48.130;8.378;2022-10-15T14:17:24;92469.53;;;19.45;58.08
52249;BME280;38541;48.130;8.378;2022-10-15T14:19:55;92477.69;;;20.25;55.58
52249;BME280;38541;48.130;8.378;2022-10-15T14:22:47;92481.69;;;19.55;56.12
52249;BME280;38541;48.130;8.378;2022-10-15T14:25:21;92493.53;;;17.93;60.80
52249;BME280;38541;48.130;8.378;2022-10-15T14:27:48;92479.75;;;17.38;62.99
52249;BME280;38541;48.130;8.378;2022-10-15T14:30:28;92485.53;;;17.32;63.73
52249;BME280;38541;48.130;8.378;2022-10-15T14:32:56;92486.94;;;17.73;63.26
52249;BME280;38541;48.130;8.378;2022-10-15T14:35:35;92482.91;;;18.02;61.81
52249;BME280;38541;48.130;8.378;2022-10-15T14:38:03;92490.88;;;17.85;62.24
52249;BME280;38541;48.130;8.378;2022-10-15T14:40:30;92489.78;;;17.59;62.79
52249;BME280;38541;48.130;8.378;2022-10-15T14:43:15;92486.09;;;17.11;64.05
52249;BME280;38541;48.130;8.378;2022-10-15T14:48:20;92485.19;;;17.16;64.28
52249;BME280;38541;48.130;8.378;2022-10-15T14:50:48;92487.59;;;16.94;65.08
52249;BME280;38541;48.130;8.378;2022-10-15T14:53:18;92492.31;;;16.66;66.22
52249;BME280;38541;48.130;8.378;2022-10-15T14:55:49;92487.69;;;16.40;66.64
52249;BME280;38541;48.130;8.378;2022-10-15T14:58:19;92484.28;;;16.48;66.57
52249;BME280;38541;48.130;8.378;2022-10-15T15:00:48;92479.97;;;16.30;67.17
52249;BME280;38541;48.130;8.378;2022-10-15T15:03:25;92492.25;;;16.17;67.79
52249;BME280;38541;48.130;8.378;2022-10-15T15:05:54;92493.97;;;15.98;68.39
52249;BME280;38541;48.130;8.378;2022-10-15T15:08:22;92488.56;;;16.04;68.18
52249;BME280;38541;48.130;8.378;2022-10-15T15:10:50;92491.22;;;16.04;68.64
52249;BME280;38541;48.130;8.378;2022-10-15T15:13:23;92489.88;;;16.15;69.43